Aérodrome :
LOGIN :

S'inscrire | Disclaimer

   EN    FR    IT 

 










Légende :    VFR   VFR Marginal   IFR   IFR Intensif   IFR Très Intensif
Visi : 
Plafond : 
>= 8 km
>= 3000ft
5 à 8 km
1000 à 3000 ft
1500m à 5 km
500 à 1000 ft
800 à 1500m
200 à 500 ft
< 800m
< 200 ft
Symboles :   Orages  Brouillard  Fortes neiges  Fortes précipitations  Vent > 20 kt
SIGMETs :   Divers  Orages  Givrage  Turbulence  Onde Orograph.  Cendres Volcan.






- Altitude de l'aérodrome : 32 ft
- Code IATA : LKZ


EGUL - RAF Lakenheath

DERNIER METAR :
  • 152050Z AUTO 19008KT 9999 -RA FEW030 FEW042 FEW100 06/03 A2947 RMK AO2 RAB50 SLPNO $

METARs EXPIRÉS :
  • 151956Z AUTO 17006KT 9999 CLR 06/02 A2946 RMK AO2 SLP980 T00580023 $
  • 151856Z AUTO 17007KT 9999 CLR 07/02 A2946 RMK AO2 SLP980 T00650018 $
  • 151756Z AUTO 20010KT 9999 CLR 07/02 A2944 RMK AO2 SLP973 T00700021 10080 20060 52013 $

Prévision TAF périmée.



MET'MAP, la Météo Aéronautique d'un coup d'oeil ! - Copyright ORBIFLY Décembre 2007 - Disclaimer

ORBIFLY MET'MAP TEAM :

Programmation & Développement : Alexandra Zaïnal
Sur une idée originale de : Baudouin d'Aumeries
Assistance à la programmation : Marc-Olivier Méhu
Soutien technique & logistique : Manuel Goepfert

Contact : metmap@orbifly.com




SOURCES & CREDITS :

   NOAA